sensor_id;sensor_type;location;lat;lon;timestamp;P1;durP1;ratioP1;P2;durP2;ratioP2
57467;SDS011;43311;51.196;7.518;2023-09-30T00:00:53;18.23;;;7.43;;
57467;SDS011;43311;51.196;7.518;2023-09-30T00:03:18;17.90;;;7.72;;
57467;SDS011;43311;51.196;7.518;2023-09-30T00:05:44;21.42;;;7.80;;
57467;SDS011;43311;51.196;7.518;2023-09-30T00:08:09;22.13;;;8.38;;
57467;SDS011;43311;51.196;7.518;2023-09-30T00:10:36;18.60;;;7.22;;
57467;SDS011;43311;51.196;7.518;2023-09-30T00:13:01;19.90;;;7.68;;
57467;SDS011;43311;51.196;7.518;2023-09-30T00:15:27;20.30;;;8.30;;
57467;SDS011;43311;51.196;7.518;2023-09-30T00:17:52;20.08;;;8.52;;
57467;SDS011;43311;51.196;7.518;2023-09-30T00:20:18;16.17;;;7.45;;
57467;SDS011;43311;51.196;7.518;2023-09-30T00:22:44;15.30;;;7.70;;
57467;SDS011;43311;51.196;7.518;2023-09-30T00:25:10;23.05;;;8.25;;
57467;SDS011;43311;51.196;7.518;2023-09-30T00:27:35;16.75;;;8.23;;
57467;SDS011;43311;51.196;7.518;2023-09-30T00:30:02;18.05;;;8.35;;
57467;SDS011;43311;51.196;7.518;2023-09-30T00:32:28;17.58;;;7.05;;
57467;SDS011;43311;51.196;7.518;2023-09-30T00:34:54;25.95;;;8.60;;
57467;SDS011;43311;51.196;7.518;2023-09-30T00:37:19;20.65;;;7.95;;
57467;SDS011;43311;51.196;7.518;2023-09-30T00:39:45;19.30;;;8.82;;
57467;SDS011;43311;51.196;7.518;2023-09-30T00:42:11;20.25;;;8.55;;
57467;SDS011;43311;51.196;7.518;2023-09-30T00:44:36;20.50;;;7.88;;
57467;SDS011;43311;51.196;7.518;2023-09-30T00:47:02;22.25;;;7.72;;
57467;SDS011;43311;51.196;7.518;2023-09-30T00:49:28;16.60;;;6.55;;
57467;SDS011;43311;51.196;7.518;2023-09-30T00:51:54;17.10;;;7.07;;
57467;SDS011;43311;51.196;7.518;2023-09-30T00:54:20;19.65;;;7.20;;
57467;SDS011;43311;51.196;7.518;2023-09-30T00:56:47;19.52;;;8.05;;
57467;SDS011;43311;51.196;7.518;2023-09-30T00:59:15;18.90;;;8.05;;
57467;SDS011;43311;51.196;7.518;2023-09-30T01:01:42;14.43;;;7.22;;
57467;SDS011;43311;51.196;7.518;2023-09-30T01:04:09;20.58;;;7.95;;
57467;SDS011;43311;51.196;7.518;2023-09-30T01:06:37;21.90;;;7.93;;
57467;SDS011;43311;51.196;7.518;2023-09-30T01:09:02;21.63;;;8.07;;
57467;SDS011;43311;51.196;7.518;2023-09-30T01:11:28;17.20;;;7.38;;
57467;SDS011;43311;51.196;7.518;2023-09-30T01:13:54;16.27;;;7.25;;
57467;SDS011;43311;51.196;7.518;2023-09-30T01:16:20;24.20;;;8.70;;
57467;SDS011;43311;51.196;7.518;2023-09-30T01:18:45;20.33;;;9.13;;
57467;SDS011;43311;51.196;7.518;2023-09-30T01:21:23;19.63;;;7.25;;
57467;SDS011;43311;51.196;7.518;2023-09-30T04:12:43;10.30;;;3.78;;
57467;SDS011;43311;51.196;7.518;2023-09-30T04:15:09;10.55;;;4.30;;
57467;SDS011;43311;51.196;7.518;2023-09-30T04:17:37;14.45;;;3.90;;
57467;SDS011;43311;51.196;7.518;2023-09-30T04:20:06;10.68;;;4.78;;
57467;SDS011;43311;51.196;7.518;2023-09-30T04:22:41;15.98;;;4.57;;
57467;SDS011;43311;51.196;7.518;2023-09-30T04:25:06;14.73;;;4.50;;
57467;SDS011;43311;51.196;7.518;2023-09-30T04:27:36;8.98;;;4.15;;
57467;SDS011;43311;51.196;7.518;2023-09-30T04:30:04;7.57;;;3.75;;
57467;SDS011;43311;51.196;7.518;2023-09-30T04:32:37;15.10;;;3.38;;
57467;SDS011;43311;51.196;7.518;2023-09-30T04:35:04;15.40;;;4.30;;
57467;SDS011;43311;51.196;7.518;2023-09-30T04:37:30;12.93;;;4.07;;
57467;SDS011;43311;51.196;7.518;2023-09-30T04:39:59;13.65;;;4.95;;
57467;SDS011;43311;51.196;7.518;2023-09-30T04:42:24;11.07;;;4.20;;
57467;SDS011;43311;51.196;7.518;2023-09-30T04:44:52;9.70;;;3.05;;
57467;SDS011;43311;51.196;7.518;2023-09-30T04:47:20;9.07;;;3.40;;
57467;SDS011;43311;51.196;7.518;2023-09-30T04:49:47;14.73;;;4.72;;
57467;SDS011;43311;51.196;7.518;2023-09-30T04:52:12;16.35;;;4.05;;
57467;SDS011;43311;51.196;7.518;2023-09-30T04:54:38;8.43;;;3.35;;
57467;SDS011;43311;51.196;7.518;2023-09-30T04:57:03;8.48;;;3.33;;
57467;SDS011;43311;51.196;7.518;2023-09-30T04:59:29;8.05;;;3.13;;
57467;SDS011;43311;51.196;7.518;2023-09-30T05:01:55;10.23;;;2.95;;
57467;SDS011;43311;51.196;7.518;2023-09-30T05:04:21;6.65;;;2.55;;
57467;SDS011;43311;51.196;7.518;2023-09-30T05:06:49;5.93;;;2.72;;
57467;SDS011;43311;51.196;7.518;2023-09-30T05:09:15;7.20;;;3.13;;
57467;SDS011;43311;51.196;7.518;2023-09-30T05:11:43;8.65;;;3.95;;
57467;SDS011;43311;51.196;7.518;2023-09-30T05:14:09;6.68;;;3.33;;
57467;SDS011;43311;51.196;7.518;2023-09-30T05:16:40;9.57;;;3.78;;
57467;SDS011;43311;51.196;7.518;2023-09-30T05:19:09;11.30;;;3.42;;
57467;SDS011;43311;51.196;7.518;2023-09-30T05:21:37;6.68;;;3.15;;
57467;SDS011;43311;51.196;7.518;2023-09-30T05:24:06;8.20;;;3.67;;
57467;SDS011;43311;51.196;7.518;2023-09-30T05:26:36;6.30;;;2.92;;
57467;SDS011;43311;51.196;7.518;2023-09-30T05:29:01;10.82;;;3.72;;
57467;SDS011;43311;51.196;7.518;2023-09-30T05:31:28;9.57;;;2.95;;
57467;SDS011;43311;51.196;7.518;2023-09-30T05:33:54;12.40;;;3.67;;
57467;SDS011;43311;51.196;7.518;2023-09-30T05:36:20;15.65;;;4.38;;
57467;SDS011;43311;51.196;7.518;2023-09-30T05:38:46;13.23;;;4.20;;
57467;SDS011;43311;51.196;7.518;2023-09-30T05:41:14;19.55;;;4.85;;
57467;SDS011;43311;51.196;7.518;2023-09-30T05:43:52;24.50;;;5.28;;
57467;SDS011;43311;51.196;7.518;2023-09-30T05:46:18;21.23;;;5.57;;
57467;SDS011;43311;51.196;7.518;2023-09-30T05:48:44;22.33;;;5.07;;
57467;SDS011;43311;51.196;7.518;2023-09-30T05:51:12;18.92;;;4.82;;
57467;SDS011;43311;51.196;7.518;2023-09-30T05:53:44;12.52;;;3.67;;
57467;SDS011;43311;51.196;7.518;2023-09-30T05:56:13;18.88;;;4.15;;
57467;SDS011;43311;51.196;7.518;2023-09-30T05:58:48;16.83;;;4.38;;
57467;SDS011;43311;51.196;7.518;2023-09-30T06:01:14;16.23;;;4.93;;
57467;SDS011;43311;51.196;7.518;2023-09-30T06:03:45;12.20;;;3.83;;
57467;SDS011;43311;51.196;7.518;2023-09-30T06:06:15;17.30;;;4.75;;
57467;SDS011;43311;51.196;7.518;2023-09-30T06:08:43;16.90;;;4.78;;
57467;SDS011;43311;51.196;7.518;2023-09-30T06:11:21;15.85;;;4.80;;
57467;SDS011;43311;51.196;7.518;2023-09-30T06:13:59;12.80;;;5.05;;
57467;SDS011;43311;51.196;7.518;2023-09-30T06:16:32;16.55;;;4.68;;
57467;SDS011;43311;51.196;7.518;2023-09-30T06:19:01;16.02;;;5.38;;
57467;SDS011;43311;51.196;7.518;2023-09-30T06:21:28;13.02;;;4.85;;
57467;SDS011;43311;51.196;7.518;2023-09-30T06:23:54;13.35;;;5.05;;
57467;SDS011;43311;51.196;7.518;2023-09-30T06:26:21;113.85;;;8.57;;
57467;SDS011;43311;51.196;7.518;2023-09-30T06:28:46;22.20;;;6.38;;
57467;SDS011;43311;51.196;7.518;2023-09-30T06:31:13;35.67;;;6.95;;
57467;SDS011;43311;51.196;7.518;2023-09-30T06:33:40;42.13;;;6.90;;
57467;SDS011;43311;51.196;7.518;2023-09-30T06:36:13;24.27;;;6.05;;
57467;SDS011;43311;51.196;7.518;2023-09-30T06:38:39;42.35;;;6.47;;
57467;SDS011;43311;51.196;7.518;2023-09-30T06:41:07;12.50;;;6.20;;
57467;SDS011;43311;51.196;7.518;2023-09-30T06:43:33;16.30;;;6.43;;
57467;SDS011;43311;51.196;7.518;2023-09-30T06:46:06;42.75;;;6.60;;
57467;SDS011;43311;51.196;7.518;2023-09-30T06:48:37;17.58;;;5.63;;
57467;SDS011;43311;51.196;7.518;2023-09-30T06:51:14;21.27;;;6.05;;
57467;SDS011;43311;51.196;7.518;2023-09-30T06:53:40;27.15;;;6.35;;
57467;SDS011;43311;51.196;7.518;2023-09-30T06:56:05;45.45;;;5.60;;
57467;SDS011;43311;51.196;7.518;2023-09-30T06:58:31;56.35;;;5.97;;
57467;SDS011;43311;51.196;7.518;2023-09-30T07:00:57;29.67;;;5.32;;
57467;SDS011;43311;51.196;7.518;2023-09-30T07:03:22;19.88;;;5.07;;
57467;SDS011;43311;51.196;7.518;2023-09-30T07:05:48;45.47;;;5.78;;
57467;SDS011;43311;51.196;7.518;2023-09-30T07:08:16;24.92;;;7.07;;
57467;SDS011;43311;51.196;7.518;2023-09-30T07:10:42;47.40;;;7.15;;
57467;SDS011;43311;51.196;7.518;2023-09-30T07:13:08;33.70;;;7.35;;
57467;SDS011;43311;51.196;7.518;2023-09-30T07:15:34;49.42;;;7.72;;
57467;SDS011;43311;51.196;7.518;2023-09-30T07:17:59;14.38;;;7.45;;
57467;SDS011;43311;51.196;7.518;2023-09-30T07:20:25;19.13;;;7.45;;
57467;SDS011;43311;51.196;7.518;2023-09-30T07:22:51;26.95;;;7.68;;
57467;SDS011;43311;51.196;7.518;2023-09-30T07:25:17;31.42;;;7.47;;
57467;SDS011;43311;51.196;7.518;2023-09-30T07:27:43;24.80;;;7.75;;
57467;SDS011;43311;51.196;7.518;2023-09-30T07:30:10;23.63;;;8.38;;
57467;SDS011;43311;51.196;7.518;2023-09-30T07:32:37;16.73;;;7.60;;
57467;SDS011;43311;51.196;7.518;2023-09-30T07:35:03;20.45;;;8.45;;
57467;SDS011;43311;51.196;7.518;2023-09-30T07:37:29;29.42;;;8.85;;
57467;SDS011;43311;51.196;7.518;2023-09-30T07:39:55;28.48;;;9.82;;
57467;SDS011;43311;51.196;7.518;2023-09-30T07:42:20;23.17;;;9.70;;
57467;SDS011;43311;51.196;7.518;2023-09-30T07:44:47;25.58;;;8.85;;
57467;SDS011;43311;51.196;7.518;2023-09-30T07:47:15;32.85;;;10.65;;
57467;SDS011;43311;51.196;7.518;2023-09-30T07:49:54;35.42;;;9.75;;
57467;SDS011;43311;51.196;7.518;2023-09-30T07:52:40;31.75;;;9.80;;
57467;SDS011;43311;51.196;7.518;2023-09-30T07:55:06;29.50;;;10.27;;
57467;SDS011;43311;51.196;7.518;2023-09-30T07:57:33;23.90;;;11.15;;
57467;SDS011;43311;51.196;7.518;2023-09-30T07:59:58;31.00;;;11.50;;
57467;SDS011;43311;51.196;7.518;2023-09-30T08:02:24;34.75;;;11.95;;
57467;SDS011;43311;51.196;7.518;2023-09-30T08:07:18;28.90;;;13.02;;
57467;SDS011;43311;51.196;7.518;2023-09-30T08:09:43;31.27;;;13.05;;
57467;SDS011;43311;51.196;7.518;2023-09-30T08:12:09;31.20;;;12.15;;
57467;SDS011;43311;51.196;7.518;2023-09-30T08:14:34;44.13;;;14.30;;
57467;SDS011;43311;51.196;7.518;2023-09-30T08:17:00;34.05;;;13.88;;
57467;SDS011;43311;51.196;7.518;2023-09-30T08:19:25;38.78;;;14.00;;
57467;SDS011;43311;51.196;7.518;2023-09-30T08:21:50;35.40;;;14.45;;
57467;SDS011;43311;51.196;7.518;2023-09-30T08:24:17;28.15;;;12.90;;
57467;SDS011;43311;51.196;7.518;2023-09-30T08:26:42;34.70;;;13.90;;
57467;SDS011;43311;51.196;7.518;2023-09-30T08:29:08;29.67;;;12.27;;
57467;SDS011;43311;51.196;7.518;2023-09-30T08:31:33;28.50;;;12.38;;
57467;SDS011;43311;51.196;7.518;2023-09-30T08:33:59;33.97;;;14.30;;
57467;SDS011;43311;51.196;7.518;2023-09-30T08:36:25;41.25;;;15.00;;
57467;SDS011;43311;51.196;7.518;2023-09-30T08:42:38;28.17;;;12.77;;
57467;SDS011;43311;51.196;7.518;2023-09-30T08:45:04;33.28;;;13.93;;
57467;SDS011;43311;51.196;7.518;2023-09-30T08:47:32;28.75;;;12.82;;
57467;SDS011;43311;51.196;7.518;2023-09-30T08:50:00;35.33;;;13.63;;
57467;SDS011;43311;51.196;7.518;2023-09-30T08:52:31;29.88;;;14.80;;
57467;SDS011;43311;51.196;7.518;2023-09-30T08:54:58;33.90;;;14.03;;
57467;SDS011;43311;51.196;7.518;2023-09-30T08:57:24;33.60;;;14.18;;
57467;SDS011;43311;51.196;7.518;2023-09-30T08:59:50;33.88;;;13.32;;
57467;SDS011;43311;51.196;7.518;2023-09-30T09:02:18;28.77;;;12.90;;
57467;SDS011;43311;51.196;7.518;2023-09-30T09:04:44;24.25;;;12.25;;
57467;SDS011;43311;51.196;7.518;2023-09-30T09:07:10;27.88;;;12.25;;
57467;SDS011;43311;51.196;7.518;2023-09-30T09:09:36;27.67;;;11.85;;
57467;SDS011;43311;51.196;7.518;2023-09-30T09:12:02;27.17;;;13.10;;
57467;SDS011;43311;51.196;7.518;2023-09-30T09:14:40;25.92;;;11.60;;
57467;SDS011;43311;51.196;7.518;2023-09-30T09:17:08;26.52;;;12.18;;
57467;SDS011;43311;51.196;7.518;2023-09-30T09:19:35;28.55;;;12.05;;
57467;SDS011;43311;51.196;7.518;2023-09-30T09:22:02;30.13;;;11.45;;
57467;SDS011;43311;51.196;7.518;2023-09-30T09:24:35;28.35;;;10.77;;
57467;SDS011;43311;51.196;7.518;2023-09-30T09:27:13;26.13;;;11.88;;
57467;SDS011;43311;51.196;7.518;2023-09-30T09:29:42;40.28;;;12.93;;
57467;SDS011;43311;51.196;7.518;2023-09-30T09:32:13;61.03;;;12.20;;
57467;SDS011;43311;51.196;7.518;2023-09-30T09:34:40;31.58;;;9.90;;
57467;SDS011;43311;51.196;7.518;2023-09-30T09:39:55;19.65;;;7.53;;
57467;SDS011;43311;51.196;7.518;2023-09-30T09:42:28;22.02;;;7.55;;
57467;SDS011;43311;51.196;7.518;2023-09-30T09:44:59;20.15;;;7.20;;
57467;SDS011;43311;51.196;7.518;2023-09-30T09:49:52;16.58;;;5.47;;
57467;SDS011;43311;51.196;7.518;2023-09-30T09:52:18;15.48;;;6.13;;
57467;SDS011;43311;51.196;7.518;2023-09-30T09:54:44;18.02;;;5.75;;
57467;SDS011;43311;51.196;7.518;2023-09-30T09:57:11;16.10;;;6.35;;
57467;SDS011;43311;51.196;7.518;2023-09-30T09:59:40;17.10;;;5.55;;
57467;SDS011;43311;51.196;7.518;2023-09-30T10:02:11;18.90;;;6.13;;
57467;SDS011;43311;51.196;7.518;2023-09-30T10:04:43;13.43;;;4.95;;
57467;SDS011;43311;51.196;7.518;2023-09-30T10:07:10;12.40;;;4.43;;
57467;SDS011;43311;51.196;7.518;2023-09-30T10:09:39;8.38;;;3.97;;
57467;SDS011;43311;51.196;7.518;2023-09-30T10:12:10;19.67;;;4.45;;
57467;SDS011;43311;51.196;7.518;2023-09-30T10:14:36;15.27;;;4.82;;
57467;SDS011;43311;51.196;7.518;2023-09-30T10:17:03;13.30;;;4.75;;
57467;SDS011;43311;51.196;7.518;2023-09-30T10:19:29;10.75;;;4.22;;
57467;SDS011;43311;51.196;7.518;2023-09-30T10:24:48;15.77;;;5.00;;
57467;SDS011;43311;51.196;7.518;2023-09-30T10:35:16;11.13;;;3.70;;
57467;SDS011;43311;51.196;7.518;2023-09-30T10:37:43;15.25;;;4.25;;
57467;SDS011;43311;51.196;7.518;2023-09-30T10:40:09;13.13;;;3.70;;
57467;SDS011;43311;51.196;7.518;2023-09-30T10:50:50;8.95;;;2.90;;
57467;SDS011;43311;51.196;7.518;2023-09-30T10:53:24;10.77;;;3.42;;
57467;SDS011;43311;51.196;7.518;2023-09-30T10:55:59;16.88;;;3.20;;
57467;SDS011;43311;51.196;7.518;2023-09-30T11:01:11;30.73;;;7.25;;
57467;SDS011;43311;51.196;7.518;2023-09-30T11:03:38;25.17;;;6.95;;
57467;SDS011;43311;51.196;7.518;2023-09-30T11:06:07;18.50;;;7.03;;
57467;SDS011;43311;51.196;7.518;2023-09-30T11:08:37;14.63;;;4.43;;
57467;SDS011;43311;51.196;7.518;2023-09-30T11:11:05;9.38;;;3.65;;
57467;SDS011;43311;51.196;7.518;2023-09-30T11:13:31;12.32;;;4.18;;
57467;SDS011;43311;51.196;7.518;2023-09-30T11:16:00;9.60;;;3.90;;
57467;SDS011;43311;51.196;7.518;2023-09-30T11:18:28;10.68;;;3.58;;
57467;SDS011;43311;51.196;7.518;2023-09-30T11:21:03;10.50;;;3.28;;
57467;SDS011;43311;51.196;7.518;2023-09-30T11:23:29;7.35;;;3.67;;
57467;SDS011;43311;51.196;7.518;2023-09-30T11:25:56;16.65;;;4.53;;
57467;SDS011;43311;51.196;7.518;2023-09-30T11:28:22;13.10;;;5.35;;
57467;SDS011;43311;51.196;7.518;2023-09-30T11:30:54;9.38;;;3.85;;
57467;SDS011;43311;51.196;7.518;2023-09-30T11:33:21;12.23;;;3.92;;
57467;SDS011;43311;51.196;7.518;2023-09-30T11:36:00;21.50;;;4.80;;
57467;SDS011;43311;51.196;7.518;2023-09-30T11:38:30;11.98;;;3.58;;
57467;SDS011;43311;51.196;7.518;2023-09-30T11:41:00;11.63;;;3.88;;
57467;SDS011;43311;51.196;7.518;2023-09-30T11:43:33;15.88;;;3.40;;
57467;SDS011;43311;51.196;7.518;2023-09-30T11:46:11;9.48;;;3.95;;
57467;SDS011;43311;51.196;7.518;2023-09-30T11:48:40;8.00;;;3.40;;
57467;SDS011;43311;51.196;7.518;2023-09-30T11:51:26;11.65;;;4.10;;
57467;SDS011;43311;51.196;7.518;2023-09-30T11:53:53;10.32;;;3.47;;
57467;SDS011;43311;51.196;7.518;2023-09-30T11:56:20;8.75;;;2.67;;
57467;SDS011;43311;51.196;7.518;2023-09-30T11:58:47;10.77;;;3.88;;
57467;SDS011;43311;51.196;7.518;2023-09-30T12:01:14;7.53;;;3.00;;
57467;SDS011;43311;51.196;7.518;2023-09-30T12:03:39;10.73;;;2.45;;
57467;SDS011;43311;51.196;7.518;2023-09-30T12:06:07;36.95;;;5.25;;
57467;SDS011;43311;51.196;7.518;2023-09-30T12:08:33;11.48;;;3.55;;
57467;SDS011;43311;51.196;7.518;2023-09-30T12:10:58;8.48;;;3.35;;
57467;SDS011;43311;51.196;7.518;2023-09-30T12:13:27;7.88;;;2.80;;
57467;SDS011;43311;51.196;7.518;2023-09-30T12:15:52;7.57;;;3.70;;
57467;SDS011;43311;51.196;7.518;2023-09-30T12:18:18;14.63;;;8.25;;
57467;SDS011;43311;51.196;7.518;2023-09-30T12:20:49;6.88;;;2.80;;
57467;SDS011;43311;51.196;7.518;2023-09-30T12:23:15;14.63;;;3.72;;
57467;SDS011;43311;51.196;7.518;2023-09-30T12:25:43;9.90;;;3.35;;
57467;SDS011;43311;51.196;7.518;2023-09-30T12:28:09;9.27;;;2.63;;
57467;SDS011;43311;51.196;7.518;2023-09-30T12:30:34;11.93;;;2.67;;
57467;SDS011;43311;51.196;7.518;2023-09-30T12:32:59;7.22;;;2.55;;
57467;SDS011;43311;51.196;7.518;2023-09-30T12:35:25;7.47;;;2.60;;
57467;SDS011;43311;51.196;7.518;2023-09-30T12:37:51;7.85;;;2.97;;
57467;SDS011;43311;51.196;7.518;2023-09-30T12:40:20;10.43;;;2.97;;
57467;SDS011;43311;51.196;7.518;2023-09-30T12:42:45;7.82;;;2.45;;
57467;SDS011;43311;51.196;7.518;2023-09-30T12:45:12;8.55;;;2.90;;
57467;SDS011;43311;51.196;7.518;2023-09-30T12:47:38;9.90;;;2.45;;
57467;SDS011;43311;51.196;7.518;2023-09-30T12:50:04;5.78;;;2.60;;
57467;SDS011;43311;51.196;7.518;2023-09-30T12:52:29;8.45;;;2.35;;
57467;SDS011;43311;51.196;7.518;2023-09-30T12:54:57;8.30;;;2.85;;
57467;SDS011;43311;51.196;7.518;2023-09-30T12:57:23;7.50;;;2.60;;
57467;SDS011;43311;51.196;7.518;2023-09-30T12:59:48;8.18;;;3.17;;
57467;SDS011;43311;51.196;7.518;2023-09-30T13:02:18;15.43;;;3.08;;
57467;SDS011;43311;51.196;7.518;2023-09-30T13:04:44;8.73;;;2.70;;
57467;SDS011;43311;51.196;7.518;2023-09-30T13:07:11;7.22;;;2.40;;
57467;SDS011;43311;51.196;7.518;2023-09-30T13:09:40;6.97;;;2.75;;
57467;SDS011;43311;51.196;7.518;2023-09-30T13:12:06;7.15;;;2.42;;
57467;SDS011;43311;51.196;7.518;2023-09-30T13:14:32;10.30;;;2.90;;
57467;SDS011;43311;51.196;7.518;2023-09-30T13:16:58;9.02;;;2.50;;
57467;SDS011;43311;51.196;7.518;2023-09-30T13:19:23;5.40;;;2.10;;
57467;SDS011;43311;51.196;7.518;2023-09-30T13:21:49;7.78;;;2.40;;
57467;SDS011;43311;51.196;7.518;2023-09-30T13:24:16;5.75;;;3.05;;
57467;SDS011;43311;51.196;7.518;2023-09-30T13:26:42;8.43;;;2.38;;
57467;SDS011;43311;51.196;7.518;2023-09-30T13:29:07;9.50;;;3.30;;
57467;SDS011;43311;51.196;7.518;2023-09-30T13:31:35;7.60;;;2.72;;
57467;SDS011;43311;51.196;7.518;2023-09-30T13:34:04;6.10;;;2.83;;
57467;SDS011;43311;51.196;7.518;2023-09-30T13:36:29;5.38;;;2.50;;
57467;SDS011;43311;51.196;7.518;2023-09-30T13:38:55;7.53;;;3.10;;
57467;SDS011;43311;51.196;7.518;2023-09-30T13:41:21;10.75;;;3.00;;
57467;SDS011;43311;51.196;7.518;2023-09-30T13:43:46;8.73;;;2.90;;
57467;SDS011;43311;51.196;7.518;2023-09-30T13:46:12;8.80;;;3.22;;
57467;SDS011;43311;51.196;7.518;2023-09-30T13:48:38;9.90;;;3.00;;
57467;SDS011;43311;51.196;7.518;2023-09-30T13:51:04;7.47;;;2.92;;
57467;SDS011;43311;51.196;7.518;2023-09-30T13:53:34;6.32;;;2.70;;
57467;SDS011;43311;51.196;7.518;2023-09-30T13:55:59;7.65;;;3.00;;
57467;SDS011;43311;51.196;7.518;2023-09-30T13:58:25;7.25;;;3.42;;
57467;SDS011;43311;51.196;7.518;2023-09-30T14:00:53;6.80;;;2.75;;
57467;SDS011;43311;51.196;7.518;2023-09-30T14:03:19;8.27;;;2.95;;
57467;SDS011;43311;51.196;7.518;2023-09-30T14:05:45;6.38;;;2.90;;
57467;SDS011;43311;51.196;7.518;2023-09-30T14:08:11;6.78;;;2.63;;
57467;SDS011;43311;51.196;7.518;2023-09-30T14:10:37;7.22;;;2.50;;
57467;SDS011;43311;51.196;7.518;2023-09-30T14:13:03;11.48;;;2.83;;
57467;SDS011;43311;51.196;7.518;2023-09-30T14:15:29;6.75;;;2.42;;
57467;SDS011;43311;51.196;7.518;2023-09-30T14:20:48;10.35;;;3.25;;
57467;SDS011;43311;51.196;7.518;2023-09-30T14:49:44;9.40;;;3.25;;
57467;SDS011;43311;51.196;7.518;2023-09-30T14:53:15;8.05;;;3.10;;
57467;SDS011;43311;51.196;7.518;2023-09-30T14:55:41;10.07;;;2.92;;
57467;SDS011;43311;51.196;7.518;2023-09-30T14:58:07;6.80;;;2.75;;
57467;SDS011;43311;51.196;7.518;2023-09-30T15:00:33;11.23;;;3.25;;
57467;SDS011;43311;51.196;7.518;2023-09-30T15:02:58;7.93;;;3.17;;
57467;SDS011;43311;51.196;7.518;2023-09-30T15:07:55;14.35;;;2.75;;
57467;SDS011;43311;51.196;7.518;2023-09-30T15:10:20;8.20;;;2.97;;
57467;SDS011;43311;51.196;7.518;2023-09-30T15:12:46;11.00;;;2.80;;
57467;SDS011;43311;51.196;7.518;2023-09-30T15:15:12;10.65;;;2.90;;
57467;SDS011;43311;51.196;7.518;2023-09-30T15:17:39;7.78;;;3.15;;
57467;SDS011;43311;51.196;7.518;2023-09-30T15:20:07;6.97;;;3.10;;
57467;SDS011;43311;51.196;7.518;2023-09-30T15:22:34;8.00;;;3.00;;
57467;SDS011;43311;51.196;7.518;2023-09-30T15:24:59;8.82;;;3.88;;
57467;SDS011;43311;51.196;7.518;2023-09-30T15:27:31;8.38;;;3.28;;
57467;SDS011;43311;51.196;7.518;2023-09-30T15:29:59;7.50;;;3.47;;
57467;SDS011;43311;51.196;7.518;2023-09-30T15:34:50;9.80;;;2.67;;
57467;SDS011;43311;51.196;7.518;2023-09-30T15:37:16;8.10;;;3.08;;
57467;SDS011;43311;51.196;7.518;2023-09-30T15:39:42;8.60;;;3.17;;
57467;SDS011;43311;51.196;7.518;2023-09-30T15:42:08;7.97;;;3.22;;
57467;SDS011;43311;51.196;7.518;2023-09-30T15:44:34;5.43;;;3.00;;
57467;SDS011;43311;51.196;7.518;2023-09-30T15:47:00;8.75;;;2.92;;
57467;SDS011;43311;51.196;7.518;2023-09-30T15:49:26;9.50;;;3.47;;
57467;SDS011;43311;51.196;7.518;2023-09-30T15:51:51;6.88;;;3.42;;
57467;SDS011;43311;51.196;7.518;2023-09-30T15:54:18;10.93;;;3.50;;
57467;SDS011;43311;51.196;7.518;2023-09-30T15:56:44;9.73;;;3.50;;
57467;SDS011;43311;51.196;7.518;2023-09-30T15:59:09;7.53;;;3.10;;
57467;SDS011;43311;51.196;7.518;2023-09-30T16:01:34;7.88;;;2.90;;
57467;SDS011;43311;51.196;7.518;2023-09-30T16:04:00;7.35;;;3.00;;
57467;SDS011;43311;51.196;7.518;2023-09-30T16:06:26;9.93;;;3.88;;
57467;SDS011;43311;51.196;7.518;2023-09-30T16:08:52;6.43;;;2.85;;
57467;SDS011;43311;51.196;7.518;2023-09-30T16:11:27;4.95;;;2.80;;
57467;SDS011;43311;51.196;7.518;2023-09-30T16:13:53;8.02;;;3.50;;
57467;SDS011;43311;51.196;7.518;2023-09-30T16:16:19;7.57;;;3.30;;
57467;SDS011;43311;51.196;7.518;2023-09-30T16:18:45;7.30;;;3.60;;
57467;SDS011;43311;51.196;7.518;2023-09-30T16:21:11;10.48;;;4.28;;
57467;SDS011;43311;51.196;7.518;2023-09-30T16:23:36;9.32;;;4.10;;
57467;SDS011;43311;51.196;7.518;2023-09-30T16:26:02;10.25;;;4.45;;
57467;SDS011;43311;51.196;7.518;2023-09-30T16:28:27;9.73;;;4.07;;
57467;SDS011;43311;51.196;7.518;2023-09-30T16:30:53;8.98;;;4.75;;
57467;SDS011;43311;51.196;7.518;2023-09-30T16:33:20;9.27;;;4.30;;
57467;SDS011;43311;51.196;7.518;2023-09-30T16:35:50;9.25;;;4.15;;
57467;SDS011;43311;51.196;7.518;2023-09-30T16:38:19;10.18;;;4.35;;
57467;SDS011;43311;51.196;7.518;2023-09-30T16:40:52;11.15;;;5.20;;
57467;SDS011;43311;51.196;7.518;2023-09-30T16:45:43;11.73;;;4.60;;
57467;SDS011;43311;51.196;7.518;2023-09-30T16:48:09;11.43;;;4.75;;
57467;SDS011;43311;51.196;7.518;2023-09-30T16:50:35;9.15;;;4.40;;
57467;SDS011;43311;51.196;7.518;2023-09-30T16:53:01;6.88;;;4.10;;
57467;SDS011;43311;51.196;7.518;2023-09-30T16:55:27;9.32;;;4.50;;
57467;SDS011;43311;51.196;7.518;2023-09-30T16:57:54;8.88;;;4.78;;
57467;SDS011;43311;51.196;7.518;2023-09-30T17:00:19;11.05;;;4.40;;
57467;SDS011;43311;51.196;7.518;2023-09-30T17:02:47;13.38;;;4.28;;
57467;SDS011;43311;51.196;7.518;2023-09-30T17:05:12;8.75;;;5.05;;
57467;SDS011;43311;51.196;7.518;2023-09-30T17:07:39;8.10;;;4.13;;
57467;SDS011;43311;51.196;7.518;2023-09-30T17:10:05;9.75;;;3.92;;
57467;SDS011;43311;51.196;7.518;2023-09-30T17:12:31;13.93;;;5.25;;
57467;SDS011;43311;51.196;7.518;2023-09-30T17:14:57;10.85;;;4.90;;
57467;SDS011;43311;51.196;7.518;2023-09-30T17:17:24;15.13;;;7.20;;
57467;SDS011;43311;51.196;7.518;2023-09-30T17:19:49;13.13;;;7.68;;
57467;SDS011;43311;51.196;7.518;2023-09-30T17:22:14;17.83;;;9.10;;
57467;SDS011;43311;51.196;7.518;2023-09-30T17:24:42;15.77;;;6.03;;
57467;SDS011;43311;51.196;7.518;2023-09-30T17:27:08;9.80;;;4.28;;
57467;SDS011;43311;51.196;7.518;2023-09-30T17:29:34;13.23;;;4.78;;
57467;SDS011;43311;51.196;7.518;2023-09-30T17:32:00;13.23;;;5.32;;
57467;SDS011;43311;51.196;7.518;2023-09-30T17:34:28;13.60;;;5.28;;
57467;SDS011;43311;51.196;7.518;2023-09-30T17:36:54;9.63;;;4.82;;
57467;SDS011;43311;51.196;7.518;2023-09-30T17:39:20;11.55;;;4.82;;
57467;SDS011;43311;51.196;7.518;2023-09-30T17:41:45;12.18;;;4.90;;
57467;SDS011;43311;51.196;7.518;2023-09-30T17:44:11;11.00;;;5.63;;
57467;SDS011;43311;51.196;7.518;2023-09-30T17:46:38;12.25;;;5.10;;
57467;SDS011;43311;51.196;7.518;2023-09-30T17:49:04;10.95;;;5.30;;
57467;SDS011;43311;51.196;7.518;2023-09-30T17:51:29;12.55;;;5.32;;
57467;SDS011;43311;51.196;7.518;2023-09-30T17:53:56;10.38;;;6.07;;
57467;SDS011;43311;51.196;7.518;2023-09-30T17:56:22;13.77;;;5.82;;
57467;SDS011;43311;51.196;7.518;2023-09-30T17:58:49;12.82;;;5.68;;
57467;SDS011;43311;51.196;7.518;2023-09-30T18:01:16;15.88;;;7.50;;
57467;SDS011;43311;51.196;7.518;2023-09-30T18:03:44;14.60;;;8.23;;
57467;SDS011;43311;51.196;7.518;2023-09-30T18:06:11;11.40;;;7.72;;
57467;SDS011;43311;51.196;7.518;2023-09-30T18:08:41;10.90;;;5.65;;
57467;SDS011;43311;51.196;7.518;2023-09-30T18:11:08;8.25;;;5.03;;
57467;SDS011;43311;51.196;7.518;2023-09-30T18:13:34;10.30;;;4.68;;
57467;SDS011;43311;51.196;7.518;2023-09-30T18:16:00;8.52;;;4.10;;
57467;SDS011;43311;51.196;7.518;2023-09-30T18:18:29;7.35;;;4.57;;
57467;SDS011;43311;51.196;7.518;2023-09-30T18:20:55;9.65;;;5.10;;
57467;SDS011;43311;51.196;7.518;2023-09-30T18:23:20;11.18;;;5.03;;
57467;SDS011;43311;51.196;7.518;2023-09-30T18:25:46;10.90;;;5.25;;
57467;SDS011;43311;51.196;7.518;2023-09-30T18:28:12;11.93;;;5.50;;
57467;SDS011;43311;51.196;7.518;2023-09-30T18:30:38;12.25;;;6.50;;
57467;SDS011;43311;51.196;7.518;2023-09-30T18:33:08;8.02;;;5.88;;
57467;SDS011;43311;51.196;7.518;2023-09-30T18:35:41;12.38;;;5.97;;
57467;SDS011;43311;51.196;7.518;2023-09-30T18:38:20;9.20;;;5.68;;